Ernestville, Missouri
Current Conditions -  °F | °C
As of 5:55 AM on Thursday 27 Nov 2014 (Local Time) from KRCM Reporting Station
Overcast Overcast  
Wind Chill: 20°   Ceiling: 1200
Heat Index: 28°   Visibility: 10mi
Dew Point: 23°   Wind: 8mph
Humidity: 80%   Direction: 310°NW
Pressure: 30.49"   Gusts: NA
Location:  38.9694°N, 93.6269°W
Report Text: KRCM 271155Z AUTO 31007KT 10SM OVC012 M02/M05 A3049 RMK AO2
Loading
Personal Weather Stations






























Interactive Weather Map New forecast layout! Learn more

10-Day Weather Forecast

Advertisements
Track Severe Weather on mobile